Time;durP1;ratioP1;P1;durP2;ratioP2;P2;SDS_P1;SDS_P2;PMS_P1;PMS_P2;Temp;Humidity;BMP_temperature;BMP_pressure;BME280_temperature;BME280_humidity;BME280_pressure;Samples;Min_cycle;Max_cycle;Signal;HPM_P1;HPM_P2
2023/12/05 00:01:05;;;;;;;16.75;11.18;;;;;;;;;;13114015;22;20359;-87
2023/12/05 00:06:11;;;;;;;15.73;10.88;;;;;;;;;;13112098;22;20424;-87
2023/12/05 00:11:14;;;;;;;18.87;11.40;;;;;;;;;;13112552;22;20367;-87
2023/12/05 00:16:16;;;;;;;17.23;10.95;;;;;;;;;;13113689;22;20838;-87
2023/12/05 00:21:20;;;;;;;17.00;10.88;;;;;;;;;;13113197;22;20823;-87
2023/12/05 00:26:22;;;;;;;17.10;10.80;;;;;;;;;;13113400;22;20818;-88
2023/12/05 00:31:25;;;;;;;16.07;10.23;;;;;;;;;;13109610;22;20436;-88
2023/12/05 00:36:28;;;;;;;16.27;10.20;;;;;;;;;;13112125;22;20452;-87
2023/12/05 00:41:31;;;;;;;17.83;10.48;;;;;;;;;;13112712;22;20363;-87
2023/12/05 00:46:33;;;;;;;16.63;10.50;;;;;;;;;;13112339;22;20463;-87
2023/12/05 00:51:37;;;;;;;17.13;10.38;;;;;;;;;;13113220;22;20393;-87
2023/12/05 00:56:39;;;;;;;16.20;10.20;;;;;;;;;;13114253;22;20409;-87
2023/12/05 01:01:42;;;;;;;18.40;10.45;;;;;;;;;;13113291;22;20363;-88
2023/12/05 01:06:46;;;;;;;17.37;9.67;;;;;;;;;;13134842;22;20360;-87
2023/12/05 01:11:48;;;;;;;18.40;10.70;;;;;;;;;;13112559;22;20425;-87
2023/12/05 01:16:50;;;;;;;19.17;11.07;;;;;;;;;;13111709;22;20855;-87
2023/12/05 01:21:54;;;;;;;20.05;10.93;;;;;;;;;;13113342;22;20359;-87
2023/12/05 01:26:56;;;;;;;19.15;11.20;;;;;;;;;;13134446;22;20371;-87
2023/12/05 01:31:59;;;;;;;19.85;11.43;;;;;;;;;;13107504;22;20363;-87
2023/12/05 01:37:03;;;;;;;18.45;11.23;;;;;;;;;;13104536;22;20418;-87
2023/12/05 01:42:06;;;;;;;22.03;12.03;;;;;;;;;;13109574;22;20866;-87
2023/12/05 01:47:09;;;;;;;18.90;11.37;;;;;;;;;;13111794;22;20405;-87
2023/12/05 01:52:13;;;;;;;17.10;9.98;;;;;;;;;;13133702;22;20367;-87
2023/12/05 01:57:17;;;;;;;21.77;11.23;;;;;;;;;;13111625;22;20444;-86
2023/12/05 02:02:20;;;;;;;17.30;9.93;;;;;;;;;;13110530;22;20393;-87
2023/12/05 02:07:25;;;;;;;16.00;9.70;;;;;;;;;;13112392;22;20436;-87
2023/12/05 02:12:27;;;;;;;15.60;9.20;;;;;;;;;;13112557;22;20417;-87
2023/12/05 02:17:45;;;;;;;16.08;9.63;;;;;;;;;;13111027;22;20386;-87
2023/12/05 02:23:11;;;;;;;17.33;9.77;;;;;;;;;;13133808;22;20363;-88
2023/12/05 02:28:15;;;;;;;16.63;9.70;;;;;;;;;;13112048;22;20401;-87
2023/12/05 02:33:18;;;;;;;16.83;9.52;;;;;;;;;;13111720;22;20429;-88
2023/12/05 02:38:24;;;;;;;18.00;9.80;;;;;;;;;;13111488;22;20761;-87
2023/12/05 02:43:34;;;;;;;17.45;9.88;;;;;;;;;;13134155;22;20896;-88
2023/12/05 02:48:37;;;;;;;16.10;9.15;;;;;;;;;;13111066;22;20410;-87
2023/12/05 02:53:39;;;;;;;17.50;9.20;;;;;;;;;;13112683;22;20375;-88
2023/12/05 02:58:43;;;;;;;15.55;9.15;;;;;;;;;;13111042;22;20363;-88
2023/12/05 03:03:45;;;;;;;16.63;9.80;;;;;;;;;;13111609;22;20389;-87
2023/12/05 03:08:48;;;;;;;16.45;9.90;;;;;;;;;;13111587;22;20355;-87
2023/12/05 03:13:51;;;;;;;16.60;10.20;;;;;;;;;;13110781;22;20379;-87
2023/12/05 03:18:54;;;;;;;14.27;8.90;;;;;;;;;;13110584;22;20394;-88
2023/12/05 03:23:56;;;;;;;17.20;9.73;;;;;;;;;;13109113;22;20363;-88
2023/12/05 03:29:00;;;;;;;17.63;9.80;;;;;;;;;;13111172;22;20689;-88
2023/12/05 03:34:02;;;;;;;14.90;9.48;;;;;;;;;;13111822;22;20429;-88
2023/12/05 03:39:05;;;;;;;15.40;9.57;;;;;;;;;;13110316;22;20355;-88
2023/12/05 03:44:09;;;;;;;14.15;9.05;;;;;;;;;;13133175;22;20394;-87
2023/12/05 03:49:11;;;;;;;17.45;9.38;;;;;;;;;;13109825;22;20429;-82
2023/12/05 03:54:13;;;;;;;14.17;8.97;;;;;;;;;;13111561;22;20931;-87
2023/12/05 03:59:17;;;;;;;15.63;9.32;;;;;;;;;;13112096;22;20363;-87
2023/12/05 04:04:19;;;;;;;13.73;8.67;;;;;;;;;;13114501;22;20807;-87
2023/12/05 04:09:22;;;;;;;15.48;9.15;;;;;;;;;;13114889;22;20393;-88
2023/12/05 04:14:26;;;;;;;14.63;9.67;;;;;;;;;;13113997;22;20379;-88
2023/12/05 04:19:28;;;;;;;16.23;9.38;;;;;;;;;;13114547;22;20826;-88
2023/12/05 04:24:30;;;;;;;14.60;9.37;;;;;;;;;;13113903;22;20355;-87
2023/12/05 04:29:34;;;;;;;15.27;9.75;;;;;;;;;;13113746;22;20360;-88
2023/12/05 04:34:37;;;;;;;16.92;10.32;;;;;;;;;;13113783;22;20383;-87
2023/12/05 04:39:39;;;;;;;15.83;10.40;;;;;;;;;;13113630;22;20355;-86
2023/12/05 04:44:43;;;;;;;19.15;10.93;;;;;;;;;;13113599;22;20393;-88
2023/12/05 04:49:45;;;;;;;17.77;11.40;;;;;;;;;;13114730;22;20363;-87
2023/12/05 04:54:47;;;;;;;19.75;11.50;;;;;;;;;;13113871;22;20416;-88
2023/12/05 04:59:51;;;;;;;21.23;11.77;;;;;;;;;;13113442;22;20363;-87
2023/12/05 05:04:54;;;;;;;21.52;12.63;;;;;;;;;;13113726;22;20363;-87
2023/12/05 05:09:56;;;;;;;21.52;13.38;;;;;;;;;;13114066;22;20355;-88
2023/12/05 05:15:00;;;;;;;22.00;12.95;;;;;;;;;;13134570;22;20664;-87
2023/12/05 05:20:03;;;;;;;22.77;13.23;;;;;;;;;;13135034;22;20359;-88
2023/12/05 05:25:08;;;;;;;22.38;13.10;;;;;;;;;;13113986;22;20451;-87
2023/12/05 05:30:13;;;;;;;21.57;12.13;;;;;;;;;;13085984;22;20827;-88
2023/12/05 05:35:16;;;;;;;21.70;13.35;;;;;;;;;;13134951;22;20429;-87
2023/12/05 05:40:19;;;;;;;21.38;12.05;;;;;;;;;;13113197;22;20393;-88
2023/12/05 05:45:23;;;;;;;19.73;12.07;;;;;;;;;;13113055;22;20397;-88
2023/12/05 05:50:25;;;;;;;23.13;13.07;;;;;;;;;;13112746;22;20456;-88
2023/12/05 05:55:27;;;;;;;22.13;12.88;;;;;;;;;;13112702;22;20379;-87
2023/12/05 06:00:31;;;;;;;24.37;13.47;;;;;;;;;;13111545;22;20416;-87
2023/12/05 06:05:34;;;;;;;23.73;13.80;;;;;;;;;;13110520;22;20420;-88
2023/12/05 06:10:36;;;;;;;23.27;14.13;;;;;;;;;;13112229;22;20384;-87
2023/12/05 06:15:40;;;;;;;25.00;14.52;;;;;;;;;;13109726;22;20409;-87
2023/12/05 06:20:43;;;;;;;24.38;14.20;;;;;;;;;;13110022;22;20421;-88
2023/12/05 06:25:45;;;;;;;23.70;13.85;;;;;;;;;;13109067;22;20370;-87
2023/12/05 06:30:49;;;;;;;24.30;14.68;;;;;;;;;;13110952;22;20355;-88
2023/12/05 06:35:52;;;;;;;22.88;14.18;;;;;;;;;;13133585;22;20695;-89
2023/12/05 06:40:54;;;;;;;24.58;14.88;;;;;;;;;;13111905;22;20424;-88
2023/12/05 06:45:58;;;;;;;27.58;15.18;;;;;;;;;;13111370;22;20413;-88
2023/12/05 06:51:00;;;;;;;25.30;14.57;;;;;;;;;;13109999;22;20363;-87
2023/12/05 06:56:02;;;;;;;29.85;15.48;;;;;;;;;;13104602;22;20375;-87
2023/12/05 07:01:07;;;;;;;23.47;14.30;;;;;;;;;;13124118;22;20903;-87
2023/12/05 07:06:10;;;;;;;26.38;15.35;;;;;;;;;;13110023;22;20352;-87
2023/12/05 07:11:12;;;;;;;27.52;15.77;;;;;;;;;;13104239;22;20367;-87
2023/12/05 07:16:16;;;;;;;26.63;15.60;;;;;;;;;;13124791;22;20371;-89
2023/12/05 07:21:18;;;;;;;26.23;15.67;;;;;;;;;;13107552;22;20359;-87
2023/12/05 07:26:21;;;;;;;27.38;16.45;;;;;;;;;;13109892;22;20738;-85
2023/12/05 07:31:24;;;;;;;25.67;15.33;;;;;;;;;;13110016;22;20359;-86
2023/12/05 07:36:27;;;;;;;28.70;15.90;;;;;;;;;;13113452;22;20375;-87
2023/12/05 07:41:29;;;;;;;27.53;14.97;;;;;;;;;;13109256;22;20367;-86
2023/12/05 07:46:33;;;;;;;25.90;14.90;;;;;;;;;;13109814;22;20389;-86
2023/12/05 07:51:35;;;;;;;25.67;15.45;;;;;;;;;;13109996;22;20384;-86
2023/12/05 07:56:38;;;;;;;26.73;16.17;;;;;;;;;;13108910;22;20535;-87
2023/12/05 08:01:42;;;;;;;28.52;15.75;;;;;;;;;;13108610;22;20421;-86
2023/12/05 08:06:44;;;;;;;28.90;16.45;;;;;;;;;;13131697;22;20428;-86
2023/12/05 08:11:47;;;;;;;29.33;16.55;;;;;;;;;;13109202;22;20440;-86
2023/12/05 08:16:50;;;;;;;29.10;16.08;;;;;;;;;;13105917;22;20854;-86
2023/12/05 08:21:53;;;;;;;27.40;15.40;;;;;;;;;;13109170;22;20393;-87
2023/12/05 08:26:55;;;;;;;26.90;15.63;;;;;;;;;;13107386;22;20660;-85
2023/12/05 08:31:59;;;;;;;39.47;16.63;;;;;;;;;;13107416;22;20904;-86
2023/12/05 08:37:02;;;;;;;26.07;14.67;;;;;;;;;;13109283;22;20944;-86
2023/12/05 08:42:05;;;;;;;53.95;19.00;;;;;;;;;;13106991;22;20360;-87
2023/12/05 08:47:09;;;;;;;48.97;18.40;;;;;;;;;;13103756;22;20367;-87
2023/12/05 08:52:11;;;;;;;24.35;13.55;;;;;;;;;;13105495;22;20359;-88
2023/12/05 08:57:14;;;;;;;21.45;13.27;;;;;;;;;;13106872;22;20384;-87
2023/12/05 09:02:22;;;;;;;25.00;13.97;;;;;;;;;;13106937;22;20406;-87
2023/12/05 09:07:24;;;;;;;27.48;15.43;;;;;;;;;;13107996;22;20366;-87
2023/12/05 09:12:27;;;;;;;24.27;15.20;;;;;;;;;;13106485;22;20363;-87
2023/12/05 09:17:32;;;;;;;25.25;16.10;;;;;;;;;;13106714;22;20444;-87
2023/12/05 09:22:34;;;;;;;33.83;22.33;;;;;;;;;;13106303;22;20356;-87
2023/12/05 09:27:36;;;;;;;57.10;32.72;;;;;;;;;;13106488;22;20436;-88
2023/12/05 09:32:40;;;;;;;32.45;19.65;;;;;;;;;;13107055;22;20362;-86
2023/12/05 09:37:42;;;;;;;43.90;23.75;;;;;;;;;;13106921;22;20470;-89
2023/12/05 09:42:49;;;;;;;155.57;89.93;;;;;;;;;;13109476;22;20375;-89
2023/12/05 09:47:59;;;;;;;27.83;16.30;;;;;;;;;;13111151;22;20371;-89
2023/12/05 09:53:02;;;;;;;58.33;32.03;;;;;;;;;;13110783;22;20367;-89
2023/12/05 09:58:05;;;;;;;45.85;24.83;;;;;;;;;;13110391;22;20375;-88
2023/12/05 10:03:10;;;;;;;28.10;16.25;;;;;;;;;;13108883;22;20449;-89
2023/12/05 10:08:14;;;;;;;28.00;16.38;;;;;;;;;;13110777;22;20385;-89
2023/12/05 10:13:18;;;;;;;23.07;14.37;;;;;;;;;;13130078;22;20435;-85
2023/12/05 10:18:23;;;;;;;25.00;14.50;;;;;;;;;;13124829;22;20432;-87
2023/12/05 10:23:25;;;;;;;25.07;16.07;;;;;;;;;;13131619;22;20464;-88
2023/12/05 10:28:28;;;;;;;31.15;20.88;;;;;;;;;;13110186;22;20349;-88
2023/12/05 10:33:32;;;;;;;29.88;18.38;;;;;;;;;;13131799;22;20926;-82
2023/12/05 10:38:36;;;;;;;28.27;15.95;;;;;;;;;;13110415;22;20875;-87
2023/12/05 10:43:48;;;;;;;24.63;14.60;;;;;;;;;;13111635;22;20422;-87
2023/12/05 10:48:51;;;;;;;23.33;14.98;;;;;;;;;;13110432;22;20499;-88
2023/12/05 10:53:55;;;;;;;23.00;14.15;;;;;;;;;;13111969;22;20411;-88
2023/12/05 10:58:58;;;;;;;21.48;14.23;;;;;;;;;;13110435;22;20375;-88
2023/12/05 11:04:03;;;;;;;23.33;14.70;;;;;;;;;;13129051;22;20434;-88
2023/12/05 11:09:06;;;;;;;24.35;15.55;;;;;;;;;;13112095;22;20421;-89
2023/12/05 11:14:11;;;;;;;28.13;16.67;;;;;;;;;;13136453;22;20398;-89
2023/12/05 11:19:23;;;;;;;32.43;19.23;;;;;;;;;;13134940;22;20401;-89
2023/12/05 11:24:44;;;;;;;30.55;18.30;;;;;;;;;;13115114;22;20889;-89
2023/12/05 11:30:05;;;;;;;28.33;17.53;;;;;;;;;;13110890;22;20409;-88
2023/12/05 11:35:20;;;;;;;29.92;18.23;;;;;;;;;;13112131;22;20425;-88
2023/12/05 11:40:22;;;;;;;29.87;17.53;;;;;;;;;;13134789;22;20375;-89
2023/12/05 11:45:25;;;;;;;29.42;17.08;;;;;;;;;;13135354;22;20464;-88
2023/12/05 11:50:39;;;;;;;27.55;16.77;;;;;;;;;;13112863;22;20473;-88
2023/12/05 11:55:45;;;;;;;35.88;19.75;;;;;;;;;;13116429;22;20446;-89
2023/12/05 12:00:50;;;;;;;29.70;18.00;;;;;;;;;;13112226;22;20417;-89
2023/12/05 12:06:02;;;;;;;30.48;16.92;;;;;;;;;;13109369;22;20392;-89
2023/12/05 12:11:05;;;;;;;30.17;17.20;;;;;;;;;;13109829;22;20359;-88
2023/12/05 12:16:08;;;;;;;27.92;16.15;;;;;;;;;;13113132;22;20424;-89
2023/12/05 12:21:12;;;;;;;29.35;15.57;;;;;;;;;;13111222;22;20363;-88
2023/12/05 12:26:15;;;;;;;27.65;16.80;;;;;;;;;;13112792;22;20359;-90
2023/12/05 12:31:25;;;;;;;24.17;14.38;;;;;;;;;;13113184;22;20363;-88
2023/12/05 12:36:31;;;;;;;21.20;13.30;;;;;;;;;;13104632;22;20422;-89
2023/12/05 12:41:33;;;;;;;21.52;13.18;;;;;;;;;;13122954;22;20380;-89
2023/12/05 12:46:36;;;;;;;20.38;12.57;;;;;;;;;;13105975;22;20380;-89
2023/12/05 12:51:41;;;;;;;28.87;16.63;;;;;;;;;;13125442;22;20426;-88
2023/12/05 12:56:44;;;;;;;24.47;14.17;;;;;;;;;;13105253;22;20414;-89
2023/12/05 13:01:46;;;;;;;27.52;15.73;;;;;;;;;;13105924;22;20404;-88
2023/12/05 13:06:50;;;;;;;22.60;14.07;;;;;;;;;;13103958;22;20379;-89
2023/12/05 13:11:53;;;;;;;23.10;14.20;;;;;;;;;;13108012;22;20413;-87
2023/12/05 13:16:56;;;;;;;65.65;35.15;;;;;;;;;;13102879;22;20384;-85
2023/12/05 13:22:00;;;;;;;34.93;20.27;;;;;;;;;;13103209;22;20401;-88
2023/12/05 13:27:02;;;;;;;28.20;15.10;;;;;;;;;;13101653;22;20375;-87
2023/12/05 13:32:05;;;;;;;51.17;32.78;;;;;;;;;;13104614;22;21110;-88
2023/12/05 13:37:09;;;;;;;37.00;21.83;;;;;;;;;;13103460;22;20390;-85
2023/12/05 13:42:12;;;;;;;29.98;20.02;;;;;;;;;;13100484;22;20407;-87
2023/12/05 13:47:15;;;;;;;23.83;15.35;;;;;;;;;;13118043;22;20387;-85
2023/12/05 13:52:19;;;;;;;31.43;20.57;;;;;;;;;;13098419;22;20413;-86
2023/12/05 13:57:22;;;;;;;33.50;21.07;;;;;;;;;;13117781;22;20804;-84
2023/12/05 14:02:24;;;;;;;28.45;15.68;;;;;;;;;;13094888;22;20472;-84
2023/12/05 14:07:28;;;;;;;49.53;27.53;;;;;;;;;;13094966;22;20440;-84
2023/12/05 14:12:31;;;;;;;27.77;17.38;;;;;;;;;;13095065;22;21115;-86
2023/12/05 14:17:33;;;;;;;26.25;16.40;;;;;;;;;;13094321;22;20420;-85
2023/12/05 14:22:37;;;;;;;24.58;15.02;;;;;;;;;;13090267;22;20440;-84
2023/12/05 14:27:40;;;;;;;25.92;15.95;;;;;;;;;;13103892;22;20938;-84
2023/12/05 14:32:43;;;;;;;36.42;22.73;;;;;;;;;;13093823;22;20367;-84
2023/12/05 14:37:47;;;;;;;23.97;14.93;;;;;;;;;;13092159;22;20499;-85
2023/12/05 14:42:50;;;;;;;22.63;15.10;;;;;;;;;;13089449;22;20375;-84
2023/12/05 14:47:52;;;;;;;32.03;19.83;;;;;;;;;;13091656;22;20685;-84
2023/12/05 14:52:57;;;;;;;34.33;20.20;;;;;;;;;;13090078;22;20447;-84
2023/12/05 14:58:00;;;;;;;45.88;26.45;;;;;;;;;;12864822;22;20494;-84
2023/12/05 15:03:03;;;;;;;29.63;18.55;;;;;;;;;;12833291;23;20454;-84
2023/12/05 15:08:07;;;;;;;31.88;19.40;;;;;;;;;;12837182;23;20414;-83
2023/12/05 15:13:10;;;;;;;43.05;25.77;;;;;;;;;;12834378;23;20496;-84
2023/12/05 15:18:16;;;;;;;41.73;24.20;;;;;;;;;;12830003;23;20448;-83
2023/12/05 15:23:20;;;;;;;48.58;32.47;;;;;;;;;;12834857;23;20415;-82
2023/12/05 15:28:27;;;;;;;34.35;21.15;;;;;;;;;;12830838;23;20420;-83
2023/12/05 15:33:30;;;;;;;27.58;16.23;;;;;;;;;;12833818;23;20446;-83
2023/12/05 15:38:34;;;;;;;41.60;25.52;;;;;;;;;;12848409;23;20391;-83
2023/12/05 15:43:37;;;;;;;44.88;25.48;;;;;;;;;;12830891;23;20458;-83
2023/12/05 15:48:40;;;;;;;78.25;40.70;;;;;;;;;;12831025;23;20385;-82
2023/12/05 15:53:44;;;;;;;25.90;16.20;;;;;;;;;;12828305;23;20366;-82
2023/12/05 15:58:46;;;;;;;38.65;22.15;;;;;;;;;;12834699;23;20411;-81
2023/12/05 16:03:49;;;;;;;34.60;19.90;;;;;;;;;;12833021;23;20381;-82
2023/12/05 16:08:53;;;;;;;38.57;21.97;;;;;;;;;;12837529;23;20443;-82
2023/12/05 16:13:56;;;;;;;37.92;21.08;;;;;;;;;;12836331;23;20378;-82
2023/12/05 16:18:59;;;;;;;26.37;16.00;;;;;;;;;;12834526;23;20448;-82
2023/12/05 16:24:04;;;;;;;25.88;15.02;;;;;;;;;;12833377;23;20741;-82
2023/12/05 16:29:07;;;;;;;25.00;14.52;;;;;;;;;;12836023;23;20867;-82
2023/12/05 16:34:10;;;;;;;26.97;14.97;;;;;;;;;;12850761;23;20504;-82
2023/12/05 16:39:14;;;;;;;25.42;14.48;;;;;;;;;;12838639;23;20963;-82
2023/12/05 16:44:19;;;;;;;21.63;14.33;;;;;;;;;;12840037;23;20485;-82
2023/12/05 16:49:23;;;;;;;19.45;12.88;;;;;;;;;;12838809;23;20390;-81
2023/12/05 16:54:28;;;;;;;23.00;13.50;;;;;;;;;;12836727;23;20488;-82
2023/12/05 16:59:31;;;;;;;24.47;14.70;;;;;;;;;;12838744;23;20854;-82
2023/12/05 17:04:34;;;;;;;25.80;15.60;;;;;;;;;;12855606;23;20390;-82
2023/12/05 17:09:38;;;;;;;26.45;15.57;;;;;;;;;;12834534;23;20374;-81
2023/12/05 17:14:42;;;;;;;23.65;14.60;;;;;;;;;;12838237;23;20414;-81
2023/12/05 17:19:45;;;;;;;26.50;14.90;;;;;;;;;;12835838;23;20402;-82
2023/12/05 17:24:49;;;;;;;23.95;15.30;;;;;;;;;;12836233;23;20387;-82
2023/12/05 17:29:52;;;;;;;24.45;15.63;;;;;;;;;;12846243;23;20430;-82
2023/12/05 17:34:57;;;;;;;26.73;16.52;;;;;;;;;;12837879;23;20425;-81
2023/12/05 17:40:02;;;;;;;29.67;17.40;;;;;;;;;;12837867;23;20501;-79
2023/12/05 17:45:07;;;;;;;30.17;17.40;;;;;;;;;;12837460;23;20699;-80
2023/12/05 17:50:10;;;;;;;35.75;20.27;;;;;;;;;;12855879;22;20483;-83
2023/12/05 17:55:15;;;;;;;40.90;23.00;;;;;;;;;;12899857;22;20470;-83
2023/12/05 18:00:18;;;;;;;40.80;23.40;;;;;;;;;;12898303;22;20417;-82
2023/12/05 18:05:21;;;;;;;36.72;19.92;;;;;;;;;;12898426;23;20397;-83
2023/12/05 18:10:26;;;;;;;45.95;24.20;;;;;;;;;;12891885;22;20380;-82
2023/12/05 18:15:29;;;;;;;35.67;19.87;;;;;;;;;;12894549;22;20376;-82
2023/12/05 18:20:33;;;;;;;42.63;25.80;;;;;;;;;;12899599;23;20482;-82
2023/12/05 18:25:38;;;;;;;37.33;21.20;;;;;;;;;;12904059;23;20385;-85
2023/12/05 18:30:41;;;;;;;53.00;31.52;;;;;;;;;;12903201;23;20397;-82
2023/12/05 18:35:46;;;;;;;44.07;26.80;;;;;;;;;;12906298;23;20387;-84
2023/12/05 18:40:50;;;;;;;36.78;22.52;;;;;;;;;;12908936;23;20463;-83
2023/12/05 18:45:53;;;;;;;37.65;22.65;;;;;;;;;;12910144;23;20424;-84
2023/12/05 18:50:57;;;;;;;39.23;24.40;;;;;;;;;;12904364;23;20373;-83
2023/12/05 18:56:04;;;;;;;35.13;21.20;;;;;;;;;;12902208;23;20467;-84
2023/12/05 19:01:07;;;;;;;30.40;18.60;;;;;;;;;;12902600;23;20501;-85
2023/12/05 19:06:12;;;;;;;36.50;21.27;;;;;;;;;;12904007;23;20372;-83
2023/12/05 19:11:17;;;;;;;42.63;24.90;;;;;;;;;;12894955;22;20826;-84
2023/12/05 19:16:20;;;;;;;38.73;22.23;;;;;;;;;;12896295;22;20443;-84
2023/12/05 19:21:25;;;;;;;47.53;29.05;;;;;;;;;;12898193;22;20732;-83
2023/12/05 19:26:29;;;;;;;37.77;22.53;;;;;;;;;;12895968;22;20389;-84
2023/12/05 19:31:32;;;;;;;35.35;20.67;;;;;;;;;;12901353;22;20384;-84
2023/12/05 19:36:36;;;;;;;37.58;21.70;;;;;;;;;;12904493;22;20372;-84
2023/12/05 19:41:40;;;;;;;31.50;18.67;;;;;;;;;;12914102;22;20380;-83
2023/12/05 19:46:43;;;;;;;32.30;18.05;;;;;;;;;;12901694;22;20376;-83
2023/12/05 19:51:45;;;;;;;34.25;19.13;;;;;;;;;;12901672;22;20935;-83
2023/12/05 19:56:49;;;;;;;33.63;18.95;;;;;;;;;;12903470;23;20426;-84
2023/12/05 20:01:51;;;;;;;33.33;18.80;;;;;;;;;;12899723;22;20388;-83
2023/12/05 20:06:54;;;;;;;42.15;24.58;;;;;;;;;;12900236;22;20380;-82
2023/12/05 20:11:58;;;;;;;32.50;18.35;;;;;;;;;;12897226;22;20409;-83
2023/12/05 20:17:01;;;;;;;33.67;20.13;;;;;;;;;;12901338;22;20416;-82
2023/12/05 20:22:05;;;;;;;29.87;18.47;;;;;;;;;;12897250;22;20851;-84
2023/12/05 20:27:08;;;;;;;33.72;19.38;;;;;;;;;;12901629;22;20443;-85
2023/12/05 20:32:11;;;;;;;39.97;22.23;;;;;;;;;;12897521;22;20377;-85
2023/12/05 20:37:14;;;;;;;35.25;19.60;;;;;;;;;;12916938;22;20387;-85
2023/12/05 20:42:21;;;;;;;34.63;19.45;;;;;;;;;;12915816;22;20746;-85
2023/12/05 20:47:24;;;;;;;32.50;19.33;;;;;;;;;;12901500;22;20476;-84
2023/12/05 20:52:26;;;;;;;32.78;19.30;;;;;;;;;;12900749;22;20388;-84
2023/12/05 20:57:30;;;;;;;31.60;19.23;;;;;;;;;;12902808;23;20365;-85
2023/12/05 21:02:33;;;;;;;33.05;19.23;;;;;;;;;;12901662;22;20384;-85
2023/12/05 21:07:36;;;;;;;30.90;18.33;;;;;;;;;;12898674;22;20462;-85
2023/12/05 21:12:40;;;;;;;31.33;18.75;;;;;;;;;;12900880;22;20392;-85
2023/12/05 21:17:42;;;;;;;34.60;20.17;;;;;;;;;;12902209;22;20388;-85
2023/12/05 21:22:44;;;;;;;37.03;21.30;;;;;;;;;;12899367;22;21079;-85
2023/12/05 21:27:48;;;;;;;37.22;21.42;;;;;;;;;;12897643;22;20413;-84
2023/12/05 21:32:50;;;;;;;38.07;21.50;;;;;;;;;;12914689;22;20467;-85
2023/12/05 21:37:53;;;;;;;35.35;20.58;;;;;;;;;;12900593;22;20472;-85
2023/12/05 21:42:56;;;;;;;34.55;20.73;;;;;;;;;;12900104;22;20446;-84
2023/12/05 21:47:59;;;;;;;37.90;22.33;;;;;;;;;;12901770;22;20413;-85
2023/12/05 21:53:01;;;;;;;38.10;21.58;;;;;;;;;;12899977;22;20435;-84
2023/12/05 21:58:05;;;;;;;34.65;20.17;;;;;;;;;;12900812;23;20430;-84
2023/12/05 22:03:07;;;;;;;34.33;19.83;;;;;;;;;;12901525;22;20861;-85
2023/12/05 22:08:10;;;;;;;36.07;20.57;;;;;;;;;;12898990;22;20430;-84
2023/12/05 22:13:14;;;;;;;35.63;21.38;;;;;;;;;;12898743;22;20396;-84
2023/12/05 22:18:16;;;;;;;36.75;21.58;;;;;;;;;;12901313;22;20787;-84
2023/12/05 22:23:19;;;;;;;37.53;21.42;;;;;;;;;;12896655;22;20388;-83
2023/12/05 22:28:23;;;;;;;40.30;22.98;;;;;;;;;;12907883;22;20416;-84
2023/12/05 22:33:25;;;;;;;41.58;23.77;;;;;;;;;;12902801;22;20420;-84
2023/12/05 22:38:28;;;;;;;38.20;22.58;;;;;;;;;;12899902;22;20434;-83
2023/12/05 22:43:34;;;;;;;37.83;22.77;;;;;;;;;;12898848;22;20697;-83
2023/12/05 22:48:37;;;;;;;40.27;23.07;;;;;;;;;;12899194;22;20434;-83
2023/12/05 22:53:40;;;;;;;38.53;21.83;;;;;;;;;;12902299;22;20395;-82
2023/12/05 22:58:44;;;;;;;39.80;22.23;;;;;;;;;;12900445;23;20364;-84
2023/12/05 23:03:46;;;;;;;39.23;22.23;;;;;;;;;;12896413;22;20376;-83
2023/12/05 23:08:48;;;;;;;39.58;21.70;;;;;;;;;;12899457;22;21132;-83
2023/12/05 23:13:52;;;;;;;39.53;22.03;;;;;;;;;;12903973;23;20372;-83
2023/12/05 23:18:55;;;;;;;38.53;22.25;;;;;;;;;;12927799;23;20729;-83
2023/12/05 23:23:57;;;;;;;42.77;22.27;;;;;;;;;;12913860;23;20368;-83
2023/12/05 23:29:01;;;;;;;33.83;21.45;;;;;;;;;;12925103;23;20364;-83
2023/12/05 23:34:03;;;;;;;35.85;20.98;;;;;;;;;;12911008;23;20906;-84
2023/12/05 23:39:05;;;;;;;37.78;20.58;;;;;;;;;;12912923;23;20669;-83
2023/12/05 23:44:09;;;;;;;38.60;21.23;;;;;;;;;;12912177;23;20425;-84
2023/12/05 23:49:11;;;;;;;36.00;20.98;;;;;;;;;;12933437;23;20368;-84
2023/12/05 23:54:14;;;;;;;40.40;21.77;;;;;;;;;;12910718;23;20455;-83
2023/12/05 23:59:18;;;;;;;38.95;21.33;;;;;;;;;;12910451;23;20372;-83
